< < Back
Terminal Aerodrome Forecast


Current Version              Previous Versions:   1  2  3  4  5  6  7  8  9  

Terminal Aerodrome Forecast

745
FTUS42 KGSP 270540
TAFHKY
TAF
KHKY 270540Z 2706/2806 00000KT P6SM SKC
      TEMPO 2708/2712 5SM BR FEW030
     FM271800 09004KT P6SM SCT040 PROB30 2719/2723 4SM -TSRA
      BKN045CB
     FM280100 07005KT P6SM SCT050
     FM280400 34003KT P6SM SCT100=

Latest METAR

112
SAUS70 KWBC 270800 RRJ
MTRHKY
METAR KHKY 270753Z AUTO 30003KT 10SM FEW050 23/22 A3013 RMK AO2 SLP177
T02330222


USA.gov is the U.S. government's official web portal to all federal, state and local government web resources and services.